Time;durP1;ratioP1;P1;durP2;ratioP2;P2;SDS_P1;SDS_P2;PMS_P1;PMS_P2;Temp;Humidity;BMP_temperature;BMP_pressure;BME280_temperature;BME280_humidity;BME280_pressure;Samples;Min_cycle;Max_cycle;Signal;HPM_P1;HPM_P2
2022/06/06 01:25:39;;;;;;;37.00;20.83;;;14.70;99.90;;;;;;4662791;22;20549;-88
2022/06/06 01:28:37;;;;;;;39.42;21.63;;;14.70;99.90;;;;;;5033664;28;20038;-88
2022/06/06 01:31:08;;;;;;;38.83;21.67;;;14.70;99.90;;;;;;5101785;28;20040;-87
2022/06/06 01:33:58;;;;;;;34.13;20.20;;;14.70;99.90;;;;;;5102601;28;20030;-88
2022/06/06 01:36:27;;;;;;;33.80;19.55;;;14.60;99.90;;;;;;5108221;28;20032;-86
2022/06/06 01:38:54;;;;;;;31.25;18.60;;;14.60;99.90;;;;;;5116175;28;20107;-88
2022/06/06 01:41:32;;;;;;;35.60;20.63;;;14.60;99.90;;;;;;5033962;28;20053;-88
2022/06/06 01:44:08;;;;;;;36.05;20.42;;;14.60;99.90;;;;;;5101623;28;20052;-88
2022/06/06 01:46:36;;;;;;;36.63;20.80;;;14.60;99.90;;;;;;5101765;28;20516;-86
2022/06/06 01:49:05;;;;;;;38.47;21.13;;;14.50;99.90;;;;;;5101916;28;20026;-86
2022/06/06 01:51:32;;;;;;;33.13;19.35;;;14.50;99.90;;;;;;5102170;28;20171;-89
2022/06/06 01:53:58;;;;;;;36.33;19.65;;;14.40;99.90;;;;;;5033265;28;20055;-87
2022/06/06 01:56:29;;;;;;;33.92;19.15;;;14.50;99.90;;;;;;5101346;28;20087;-87
2022/06/06 01:58:55;;;;;;;35.47;20.38;;;14.50;99.90;;;;;;5101928;28;20034;-88
2022/06/06 02:01:21;;;;;;;36.85;19.95;;;14.40;99.90;;;;;;5101416;28;20567;-88
2022/06/06 02:03:47;;;;;;;33.45;19.30;;;14.40;99.90;;;;;;5101509;28;20033;-87
2022/06/06 02:06:13;;;;;;;29.75;17.30;;;14.50;99.90;;;;;;5101335;28;20041;-87
2022/06/06 02:08:39;;;;;;;28.38;17.70;;;14.50;99.90;;;;;;5101478;28;20082;-88
2022/06/06 02:11:05;;;;;;;32.97;19.38;;;14.60;99.90;;;;;;5101323;28;20130;-88
2022/06/06 02:13:31;;;;;;;34.88;19.90;;;14.60;99.90;;;;;;5101438;28;20089;-89
2022/06/06 02:15:57;;;;;;;38.63;20.88;;;14.60;99.90;;;;;;5101497;28;20475;-89
2022/06/06 02:18:23;;;;;;;42.58;23.45;;;14.60;99.90;;;;;;5032234;28;20394;-88
2022/06/06 02:20:50;;;;;;;43.22;24.58;;;14.70;99.90;;;;;;5101391;28;20029;-87
2022/06/06 02:23:16;;;;;;;45.92;24.52;;;14.70;99.90;;;;;;5101409;28;20044;-90
2022/06/06 02:25:41;;;;;;;43.85;22.40;;;14.70;99.90;;;;;;5101364;28;20045;-89
2022/06/06 02:28:07;;;;;;;44.67;25.13;;;14.70;99.90;;;;;;5100971;28;20041;-89
2022/06/06 02:30:35;;;;;;;40.25;22.33;;;14.70;99.90;;;;;;5101361;28;20119;-88
2022/06/06 02:33:03;;;;;;;44.40;23.70;;;14.70;99.90;;;;;;5100529;28;20087;-88
2022/06/06 02:35:32;;;;;;;43.58;22.35;;;14.80;99.90;;;;;;5101274;28;20042;-89
2022/06/06 02:37:58;;;;;;;39.85;21.63;;;14.80;99.90;;;;;;5101539;28;20030;-89
2022/06/06 02:40:26;;;;;;;42.20;22.83;;;14.80;99.90;;;;;;5032833;28;20187;-88
2022/06/06 02:42:52;;;;;;;51.42;27.60;;;14.80;99.90;;;;;;5100513;28;20036;-90
2022/06/06 02:45:19;;;;;;;55.67;28.85;;;14.80;99.90;;;;;;5100443;28;20037;-87
2022/06/06 02:47:47;;;;;;;54.92;30.10;;;14.80;99.90;;;;;;5101070;28;20036;-89
2022/06/06 02:50:16;;;;;;;54.95;29.55;;;14.80;99.90;;;;;;5107072;28;20033;-86
2022/06/06 02:52:43;;;;;;;50.72;26.35;;;14.80;99.90;;;;;;5109301;28;20102;-88
2022/06/06 02:55:11;;;;;;;49.25;26.90;;;14.80;99.90;;;;;;5104509;28;20029;-88
2022/06/06 02:57:42;;;;;;;56.30;29.73;;;14.80;99.90;;;;;;5042923;28;20049;-88
2022/06/06 03:00:11;;;;;;;51.50;27.13;;;14.80;99.90;;;;;;5103730;28;20494;-89
2022/06/06 03:02:36;;;;;;;47.78;26.35;;;14.80;99.90;;;;;;5101653;28;20030;-88
2022/06/06 03:05:08;;;;;;;48.95;27.02;;;14.80;99.90;;;;;;5100509;28;20490;-88
2022/06/06 03:07:48;;;;;;;53.92;28.42;;;14.80;99.90;;;;;;5100627;28;20022;-88
2022/06/06 03:10:20;;;;;;;45.45;25.10;;;14.90;99.90;;;;;;5032656;28;20138;-89
2022/06/06 03:13:13;;;;;;;46.53;26.08;;;14.90;99.90;;;;;;5101023;28;20148;-91
2022/06/06 03:22:03;;;;;;;44.47;23.63;;;14.90;99.90;;;;;;5032910;28;20105;-88
2022/06/06 03:25:08;;;;;;;38.88;22.48;;;14.90;99.90;;;;;;5100321;28;20057;-89
2022/06/06 03:28:06;;;;;;;43.75;24.48;;;14.90;99.90;;;;;;5036249;28;20033;-88
2022/06/06 03:30:43;;;;;;;53.15;28.35;;;14.90;99.90;;;;;;5046175;28;20035;-87
2022/06/06 03:33:33;;;;;;;48.58;25.98;;;14.90;99.90;;;;;;5039241;28;20104;-88
2022/06/06 03:36:15;;;;;;;43.90;23.75;;;14.90;99.90;;;;;;5099576;28;20191;-88
2022/06/06 03:38:47;;;;;;;46.33;24.80;;;14.90;99.90;;;;;;5099999;28;20067;-87
2022/06/06 03:41:21;;;;;;;42.35;22.25;;;14.90;99.90;;;;;;5100207;28;20038;-88
2022/06/06 03:44:03;;;;;;;40.30;21.80;;;14.90;99.90;;;;;;5099703;28;20048;-87
2022/06/06 03:46:44;;;;;;;46.38;24.40;;;14.90;99.90;;;;;;5013785;28;20040;-89
2022/06/06 03:49:41;;;;;;;43.03;23.50;;;14.90;99.90;;;;;;5013435;28;20034;-87
2022/06/06 03:52:20;;;;;;;44.60;24.48;;;15.00;99.90;;;;;;5099592;28;20038;-88
2022/06/06 03:55:13;;;;;;;47.13;24.23;;;15.00;99.90;;;;;;5099607;28;20050;-89
2022/06/06 03:57:39;;;;;;;41.92;21.88;;;15.00;99.90;;;;;;5099208;28;20121;-87
2022/06/06 04:00:14;;;;;;;40.45;22.33;;;14.90;99.90;;;;;;5099613;28;20099;-89
2022/06/06 04:02:42;;;;;;;39.72;21.90;;;15.00;99.90;;;;;;5100288;28;20033;-88
2022/06/06 04:05:18;;;;;;;43.78;24.10;;;15.00;99.90;;;;;;5099782;28;20037;-87
2022/06/06 04:07:43;;;;;;;42.90;22.90;;;15.00;99.90;;;;;;5099733;28;20033;-88
2022/06/06 04:10:12;;;;;;;40.55;22.27;;;15.00;99.90;;;;;;5099585;28;20074;-88
2022/06/06 04:13:10;;;;;;;39.40;21.23;;;15.00;99.90;;;;;;5100164;28;20026;-88
2022/06/06 04:15:54;;;;;;;41.95;22.65;;;15.00;99.90;;;;;;5099955;28;20034;-87
2022/06/06 04:18:44;;;;;;;37.97;21.10;;;15.00;99.90;;;;;;5098927;28;20113;-88
2022/06/06 04:21:29;;;;;;;43.15;25.27;;;15.10;99.90;;;;;;5099359;28;20176;-88
2022/06/06 04:24:02;;;;;;;47.08;25.75;;;14.90;99.90;;;;;;5098636;28;20056;-87
2022/06/06 04:26:43;;;;;;;49.97;28.95;;;14.90;99.90;;;;;;5098917;28;20049;-87
2022/06/06 04:29:40;;;;;;;61.20;33.38;;;14.90;99.90;;;;;;5098811;28;20406;-89
2022/06/06 04:32:22;;;;;;;62.25;34.35;;;14.90;99.90;;;;;;5071725;28;20030;-87
2022/06/06 04:34:57;;;;;;;61.38;32.83;;;14.90;99.90;;;;;;5031057;28;20038;-88
2022/06/06 04:37:38;;;;;;;65.82;38.35;;;14.90;99.90;;;;;;5099552;28;20429;-88
2022/06/06 04:40:12;;;;;;;65.72;38.50;;;14.90;99.90;;;;;;5099328;28;20038;-89
2022/06/06 04:42:50;;;;;;;73.82;40.25;;;14.90;99.90;;;;;;5102137;28;20036;-88
2022/06/06 04:45:21;;;;;;;59.53;34.63;;;14.90;99.90;;;;;;5103490;28;20056;-89
2022/06/06 04:47:49;;;;;;;59.85;34.80;;;14.90;99.90;;;;;;5103587;28;20029;-88
2022/06/06 04:50:20;;;;;;;58.75;35.25;;;14.90;99.90;;;;;;5103452;28;20029;-88
2022/06/06 04:52:53;;;;;;;54.50;34.63;;;14.90;99.90;;;;;;5103151;28;20071;-88
2022/06/06 04:55:21;;;;;;;51.83;33.78;;;14.90;99.90;;;;;;5103622;28;20030;-88
2022/06/06 04:57:52;;;;;;;53.90;34.20;;;14.80;99.90;;;;;;5102328;28;20041;-88
2022/06/06 05:00:19;;;;;;;48.63;33.78;;;14.80;99.90;;;;;;5102879;28;20046;-88
2022/06/06 05:02:45;;;;;;;47.15;30.60;;;14.80;99.90;;;;;;5102675;28;20468;-88
2022/06/06 05:05:11;;;;;;;51.33;31.25;;;14.80;99.90;;;;;;5102150;28;20045;-88
2022/06/06 05:07:52;;;;;;;57.42;36.05;;;14.80;99.90;;;;;;5102293;28;20415;-88
2022/06/06 05:10:38;;;;;;;50.50;34.33;;;14.80;99.90;;;;;;5102069;28;20037;-87
2022/06/06 05:13:21;;;;;;;49.20;34.05;;;14.80;99.90;;;;;;5102244;28;20032;-88
2022/06/06 05:15:47;;;;;;;54.50;34.10;;;14.80;99.90;;;;;;5033534;28;20033;-88
2022/06/06 05:18:34;;;;;;;43.67;28.70;;;14.70;99.90;;;;;;5033305;28;20075;-88
2022/06/06 05:21:52;;;;;;;44.25;29.58;;;14.70;99.90;;;;;;5102530;28;20033;-87
2022/06/06 05:24:59;;;;;;;42.13;30.80;;;14.60;99.90;;;;;;5103297;28;20093;-88
2022/06/06 05:28:02;;;;;;;40.38;28.35;;;14.60;99.90;;;;;;5073432;28;20034;-88
2022/06/06 05:31:00;;;;;;;37.33;27.50;;;14.70;99.90;;;;;;5036234;28;20037;-88
2022/06/06 05:33:37;;;;;;;37.97;27.60;;;14.80;99.90;;;;;;5073000;28;20030;-87
2022/06/06 05:36:25;;;;;;;44.58;28.75;;;14.80;99.90;;;;;;5102549;28;20117;-87
2022/06/06 05:39:28;;;;;;;39.15;27.90;;;14.80;99.90;;;;;;5102021;28;20030;-87
2022/06/06 05:42:11;;;;;;;37.67;24.40;;;14.80;99.90;;;;;;5101953;28;20101;-88
2022/06/06 05:44:52;;;;;;;38.85;26.48;;;14.70;99.90;;;;;;5101981;28;20661;-88
2022/06/06 05:47:27;;;;;;;33.15;23.75;;;14.70;99.90;;;;;;5102462;28;20474;-88
2022/06/06 05:50:11;;;;;;;31.23;22.25;;;14.80;99.90;;;;;;5034020;28;20479;-88
2022/06/06 05:52:36;;;;;;;25.17;19.85;;;14.90;99.90;;;;;;5102404;28;20061;-89
2022/06/06 05:55:21;;;;;;;26.77;19.13;;;14.90;99.90;;;;;;5102610;28;20049;-88
2022/06/06 05:58:09;;;;;;;25.77;17.55;;;14.90;99.90;;;;;;5104411;28;20034;-89
2022/06/06 06:01:05;;;;;;;22.73;16.75;;;14.80;99.90;;;;;;5116458;28;20028;-89
2022/06/06 06:04:00;;;;;;;22.40;16.65;;;14.80;99.90;;;;;;5124496;28;20041;-88
2022/06/06 06:06:54;;;;;;;21.52;15.48;;;14.90;99.90;;;;;;5126366;28;20032;-89
2022/06/06 06:09:38;;;;;;;17.17;14.23;;;14.90;99.90;;;;;;5126265;28;20052;-90
2022/06/06 06:12:09;;;;;;;18.15;13.57;;;15.00;99.90;;;;;;5056088;28;20045;-88
2022/06/06 06:14:53;;;;;;;18.65;15.02;;;15.00;99.90;;;;;;5125450;28;20083;-88
2022/06/06 06:17:23;;;;;;;18.55;13.18;;;15.00;99.90;;;;;;5125516;28;20033;-89
2022/06/06 06:20:04;;;;;;;16.27;12.85;;;15.00;99.90;;;;;;5125117;27;20063;-89
2022/06/06 06:22:45;;;;;;;20.95;14.15;;;15.00;99.90;;;;;;5125005;27;20017;-89
2022/06/06 06:25:12;;;;;;;19.65;14.02;;;14.90;99.90;;;;;;5124719;27;20090;-89
2022/06/06 06:27:39;;;;;;;17.63;12.65;;;14.90;99.90;;;;;;5107245;27;20046;-88
2022/06/06 06:30:07;;;;;;;14.10;11.93;;;14.80;99.90;;;;;;5134860;27;20031;-89
2022/06/06 06:33:05;;;;;;;17.42;12.43;;;14.90;99.90;;;;;;5103204;27;20098;-87
2022/06/06 06:35:40;;;;;;;15.15;12.35;;;14.80;99.90;;;;;;5084277;28;20037;-88
2022/06/06 06:38:05;;;;;;;14.82;11.68;;;14.80;99.90;;;;;;5113448;28;20029;-88
2022/06/06 06:40:46;;;;;;;14.48;12.05;;;14.90;99.90;;;;;;5094603;28;20043;-87
2022/06/06 06:43:20;;;;;;;15.20;11.43;;;15.00;99.90;;;;;;5122318;28;20038;-87
2022/06/06 06:45:50;;;;;;;15.25;11.85;;;15.20;99.90;;;;;;5104605;28;20061;-88
2022/06/06 06:48:37;;;;;;;17.65;13.05;;;15.40;99.90;;;;;;5109636;28;20031;-87
2022/06/06 06:51:32;;;;;;;14.55;12.30;;;15.40;99.90;;;;;;5100557;28;20031;-86
2022/06/06 06:54:24;;;;;;;14.43;11.05;;;15.40;99.90;;;;;;5104368;28;20386;-89
2022/06/06 06:57:11;;;;;;;14.98;11.35;;;15.40;99.90;;;;;;5094740;28;20067;-88
2022/06/06 07:00:04;;;;;;;13.10;10.85;;;15.30;99.90;;;;;;5116530;28;20042;-89
2022/06/06 07:09:31;;;;;;;12.95;9.82;;;15.30;99.90;;;;;;5033127;28;20072;-89
2022/06/06 07:12:27;;;;;;;13.13;10.48;;;15.40;99.90;;;;;;5084805;28;20035;-89
2022/06/06 07:15:25;;;;;;;13.13;10.57;;;15.40;99.90;;;;;;5114071;28;20062;-88
2022/06/06 07:17:55;;;;;;;13.40;9.27;;;15.40;99.90;;;;;;5114823;28;20035;-90
2022/06/06 07:20:21;;;;;;;13.05;8.73;;;15.50;99.90;;;;;;5101313;28;20045;-89
2022/06/06 07:23:04;;;;;;;14.13;11.77;;;15.60;99.90;;;;;;5089395;28;20024;-90
2022/06/06 07:25:42;;;;;;;12.60;10.55;;;15.60;99.90;;;;;;5061982;28;20057;-88
2022/06/06 07:28:11;;;;;;;11.32;9.88;;;15.60;99.90;;;;;;5099869;28;20117;-88
2022/06/06 07:31:03;;;;;;;11.65;9.02;;;15.60;99.90;;;;;;5081912;28;20178;-88
2022/06/06 07:33:32;;;;;;;12.00;9.93;;;15.60;99.90;;;;;;5040586;28;20032;-87
2022/06/06 07:36:26;;;;;;;9.30;8.20;;;15.60;99.90;;;;;;5113358;28;20063;-88
2022/06/06 07:39:29;;;;;;;11.48;7.90;;;15.60;99.90;;;;;;5091039;28;20031;-88
2022/06/06 07:42:36;;;;;;;8.38;7.28;;;15.70;99.90;;;;;;5112874;28;20035;-88
2022/06/06 07:45:17;;;;;;;8.70;7.38;;;15.70;99.90;;;;;;5108457;28;20050;-87
2022/06/06 07:48:20;;;;;;;7.47;5.88;;;15.60;99.90;;;;;;5083642;28;20023;-87
2022/06/06 07:51:03;;;;;;;7.30;5.53;;;15.60;99.90;;;;;;5112261;28;20035;-87
2022/06/06 07:53:56;;;;;;;6.15;4.72;;;15.60;99.90;;;;;;5052964;28;20114;-87
2022/06/06 07:56:44;;;;;;;6.18;4.78;;;15.60;99.90;;;;;;5069200;28;20100;-88
2022/06/06 07:59:34;;;;;;;6.78;3.67;;;15.60;99.90;;;;;;5105193;28;20088;-88
2022/06/06 08:02:11;;;;;;;6.50;3.75;;;15.70;99.90;;;;;;5095643;28;20067;-89
2022/06/06 08:05:11;;;;;;;6.13;3.72;;;15.80;99.90;;;;;;5075717;28;20040;-88
2022/06/06 08:07:58;;;;;;;6.57;2.95;;;15.90;99.90;;;;;;5106508;28;20040;-87
2022/06/06 08:10:36;;;;;;;4.15;2.00;;;15.90;99.90;;;;;;4998061;28;20030;-88
2022/06/06 08:13:26;;;;;;;3.67;1.70;;;16.10;99.90;;;;;;5008248;28;20038;-87
2022/06/06 08:16:30;;;;;;;3.88;1.92;;;16.30;99.90;;;;;;5098364;28;20132;-86
2022/06/06 08:19:05;;;;;;;3.65;1.75;;;16.50;99.90;;;;;;5100890;28;20042;-87
2022/06/06 08:21:40;;;;;;;3.75;1.60;;;16.70;99.90;;;;;;5100976;28;20044;-88
2022/06/06 08:24:12;;;;;;;3.58;2.10;;;16.80;99.90;;;;;;5119110;27;20056;-88
2022/06/06 08:26:43;;;;;;;3.70;2.22;;;16.70;99.90;;;;;;5102598;28;20492;-88
2022/06/06 08:29:10;;;;;;;3.83;2.20;;;16.60;99.90;;;;;;5101683;28;20038;-88
2022/06/06 08:31:36;;;;;;;4.13;2.35;;;16.60;99.90;;;;;;5080733;28;20171;-87
2022/06/06 08:34:02;;;;;;;5.25;2.78;;;16.70;99.90;;;;;;5019922;28;20041;-87
2022/06/06 08:37:06;;;;;;;3.67;2.28;;;16.60;99.90;;;;;;5101002;28;20030;-88
2022/06/06 08:39:31;;;;;;;;;;;16.50;99.90;;;;;;5100383;28;20036;-88
2022/06/06 08:42:12;;;;;;;2.97;2.20;;;16.40;99.90;;;;;;5100009;28;19905;-87
2022/06/06 08:45:16;;;;;;;4.32;2.28;;;16.40;99.90;;;;;;5099842;28;20525;-88
2022/06/06 08:48:07;;;;;;;4.25;2.42;;;16.40;99.90;;;;;;5068805;28;20129;-87
2022/06/06 08:50:53;;;;;;;5.40;3.00;;;16.50;99.90;;;;;;5092208;28;20036;-88
2022/06/06 08:53:52;;;;;;;6.20;2.50;;;16.60;99.90;;;;;;5031494;28;20042;-89
2022/06/06 08:56:55;;;;;;;5.15;2.80;;;16.60;99.90;;;;;;5102762;28;20065;-90
2022/06/06 08:59:42;;;;;;;4.95;2.33;;;16.70;99.90;;;;;;5103360;28;20030;-90
2022/06/06 09:02:52;;;;;;;2.85;1.63;;;16.80;99.90;;;;;;5102579;28;20037;-92
2022/06/06 09:05:20;;;;;;;1.63;1.33;;;16.80;99.90;;;;;;5100612;28;20077;-92
2022/06/06 09:08:07;;;;;;;4.75;1.77;;;17.00;99.90;;;;;;5102026;28;20022;-90
2022/06/06 09:11:13;;;;;;;4.00;1.58;;;17.10;99.90;;;;;;5101474;28;20505;-92
2022/06/06 09:14:03;;;;;;;2.20;1.30;;;17.10;99.90;;;;;;5067060;28;20051;-91
2022/06/06 09:16:47;;;;;;;5.03;1.60;;;17.20;99.90;;;;;;5115034;28;20039;-91
2022/06/06 09:20:10;;;;;;;4.60;1.27;;;17.40;99.90;;;;;;5104628;28;20487;-91
2022/06/06 09:23:01;;;;;;;3.03;1.58;;;17.60;99.90;;;;;;5071590;28;20132;-90
2022/06/06 09:25:48;;;;;;;2.72;1.40;;;17.80;99.90;;;;;;5008324;28;20526;-88
2022/06/06 09:28:29;;;;;;;2.13;1.10;;;18.10;99.90;;;;;;5086592;28;20061;-90
2022/06/06 09:31:16;;;;;;;3.88;1.58;;;18.20;99.90;;;;;;5095477;28;20035;-91
2022/06/06 09:34:11;;;;;;;2.88;1.52;;;18.40;99.90;;;;;;5115126;28;20040;-90
2022/06/06 09:36:43;;;;;;;2.90;1.15;;;18.30;99.90;;;;;;5083071;28;20025;-89
2022/06/06 09:39:35;;;;;;;3.08;1.10;;;18.40;99.90;;;;;;5101631;28;20042;-92
2022/06/06 09:42:10;;;;;;;3.45;1.40;;;19.60;99.90;;;;;;5099195;28;20075;-93
2022/06/06 09:44:41;;;;;;;2.47;1.30;;;20.50;99.90;;;;;;5081822;28;20032;-91
2022/06/06 09:47:13;;;;;;;2.05;1.30;;;20.20;99.90;;;;;;5109029;28;20040;-92
2022/06/06 09:49:57;;;;;;;3.67;1.52;;;20.10;99.90;;;;;;5083860;28;20031;-92
2022/06/06 09:52:51;;;;;;;3.10;1.20;;;20.40;99.90;;;;;;5053235;28;20033;-93
2022/06/06 10:01:19;;;;;;;3.35;1.65;;;20.10;99.90;;;;;;5030728;28;20117;-89
2022/06/06 10:04:29;;;;;;;4.13;1.52;;;20.00;99.90;;;;;;5086913;28;20036;-91
2022/06/06 10:07:16;;;;;;;3.58;1.42;;;20.50;99.90;;;;;;5081988;28;20066;-92
2022/06/06 10:10:13;;;;;;;2.58;1.10;;;21.40;99.90;;;;;;5101818;28;20068;-90
2022/06/06 10:13:17;;;;;;;3.50;1.27;;;21.50;99.90;;;;;;5103140;28;20041;-96
2022/06/06 10:15:59;;;;;;;3.13;1.38;;;21.00;99.90;;;;;;5103275;28;20038;-89
2022/06/06 10:18:40;;;;;;;2.17;1.02;;;20.60;99.90;;;;;;5101180;28;20441;-90
2022/06/06 10:21:22;;;;;;;2.72;1.42;;;20.40;99.90;;;;;;5101141;28;20026;-90
2022/06/06 10:23:56;;;;;;;2.87;1.43;;;20.00;99.90;;;;;;5091989;28;20047;-92
2022/06/06 10:26:29;;;;;;;2.80;1.90;;;19.70;99.90;;;;;;5101926;28;20037;-89
2022/06/06 10:29:22;;;;;;;4.03;1.53;;;19.90;99.90;;;;;;5100969;28;20406;-92
2022/06/06 10:32:29;;;;;;;3.60;2.00;;;20.70;99.90;;;;;;5100895;28;20034;-91
2022/06/06 10:35:21;;;;;;;3.28;1.33;;;20.60;99.90;;;;;;5099757;28;20033;-92
2022/06/06 10:37:53;;;;;;;2.90;1.40;;;20.00;99.90;;;;;;5087523;28;20095;-91
2022/06/06 10:40:46;;;;;;;2.65;1.70;;;19.60;99.90;;;;;;5102013;28;20026;-92
2022/06/06 10:43:33;;;;;;;3.55;2.00;;;19.60;99.90;;;;;;5104860;28;20029;-90
2022/06/06 10:46:10;;;;;;;4.03;2.00;;;19.60;99.90;;;;;;5108932;28;20042;-91
2022/06/06 10:49:17;;;;;;;3.40;2.15;;;19.60;99.90;;;;;;5104029;28;20030;-89
2022/06/06 10:52:16;;;;;;;3.10;1.83;;;20.00;99.90;;;;;;5082691;28;20039;-91
2022/06/06 10:55:00;;;;;;;3.97;1.83;;;20.10;99.90;;;;;;5049696;28;20117;-95
2022/06/06 10:57:52;;;;;;;2.95;1.77;;;19.90;99.90;;;;;;5067787;28;20125;-92
2022/06/06 11:00:33;;;;;;;3.15;1.65;;;19.60;99.90;;;;;;5107218;28;20103;-93
2022/06/06 11:03:13;;;;;;;4.13;2.25;;;19.20;99.90;;;;;;5099731;28;20059;-89
2022/06/06 11:06:03;;;;;;;3.40;2.33;;;18.80;99.90;;;;;;5024704;28;20103;-89
2022/06/06 11:08:47;;;;;;;3.17;2.33;;;18.40;99.90;;;;;;5098063;28;20132;-89
2022/06/06 11:11:22;;;;;;;4.13;2.47;;;18.00;99.90;;;;;;5100241;28;20063;-92
